sensor_id;sensor_type;location;lat;lon;timestamp;temperature;humidity
67862;DHT22;54665;51.462;6.698;2022-09-03T00:01:53;15.20;60.39
67862;DHT22;54665;51.462;6.698;2022-09-03T00:04:41;15.17;59.98
67862;DHT22;54665;51.462;6.698;2022-09-03T00:07:21;15.12;59.52
67862;DHT22;54665;51.462;6.698;2022-09-03T00:09:54;15.05;60.39
67862;DHT22;54665;51.462;6.698;2022-09-03T00:12:25;14.97;60.41
67862;DHT22;54665;51.462;6.698;2022-09-03T00:14:56;14.87;61.07
67862;DHT22;54665;51.462;6.698;2022-09-03T00:17:29;14.88;60.89
67862;DHT22;54665;51.462;6.698;2022-09-03T00:20:06;14.98;62.59
67862;DHT22;54665;51.462;6.698;2022-09-03T00:22:38;14.97;61.78
67862;DHT22;54665;51.462;6.698;2022-09-03T00:25:09;14.90;62.13
67862;DHT22;54665;51.462;6.698;2022-09-03T00:27:39;14.94;61.39
67862;DHT22;54665;51.462;6.698;2022-09-03T00:32:47;14.88;63.52
67862;DHT22;54665;51.462;6.698;2022-09-03T00:35:37;14.87;63.59
67862;DHT22;54665;51.462;6.698;2022-09-03T00:38:05;14.81;63.59
67862;DHT22;54665;51.462;6.698;2022-09-03T00:40:47;14.69;64.81
67862;DHT22;54665;51.462;6.698;2022-09-03T00:43:32;14.62;64.81
67862;DHT22;54665;51.462;6.698;2022-09-03T00:51:41;14.47;64.66
67862;DHT22;54665;51.462;6.698;2022-09-03T00:54:28;14.36;65.04
67862;DHT22;54665;51.462;6.698;2022-09-03T01:00:15;14.19;65.18
67862;DHT22;54665;51.462;6.698;2022-09-03T01:05:21;14.29;65.01
67862;DHT22;54665;51.462;6.698;2022-09-03T01:08:15;14.23;64.95
67862;DHT22;54665;51.462;6.698;2022-09-03T01:11:24;14.11;65.21
67862;DHT22;54665;51.462;6.698;2022-09-03T01:16:56;13.91;66.18
67862;DHT22;54665;51.462;6.698;2022-09-03T01:22:32;13.71;66.37
67862;DHT22;54665;51.462;6.698;2022-09-03T01:25:09;13.72;66.35
67862;DHT22;54665;51.462;6.698;2022-09-03T01:30:41;13.72;66.39
67862;DHT22;54665;51.462;6.698;2022-09-03T01:33:14;13.71;66.50
67862;DHT22;54665;51.462;6.698;2022-09-03T01:38:45;13.68;68.15
67862;DHT22;54665;51.462;6.698;2022-09-03T01:47:07;13.71;69.23
67862;DHT22;54665;51.462;6.698;2022-09-03T01:49:50;13.64;69.72
67862;DHT22;54665;51.462;6.698;2022-09-03T01:52:44;13.57;69.92
67862;DHT22;54665;51.462;6.698;2022-09-03T01:55:30;13.51;70.38
67862;DHT22;54665;51.462;6.698;2022-09-03T01:58:13;13.50;70.73
67862;DHT22;54665;51.462;6.698;2022-09-03T02:00:42;13.43;71.04
67862;DHT22;54665;51.462;6.698;2022-09-03T02:03:08;13.30;71.49
67862;DHT22;54665;51.462;6.698;2022-09-03T02:05:35;13.20;72.01
67862;DHT22;54665;51.462;6.698;2022-09-03T02:08:06;13.16;73.00
67862;DHT22;54665;51.462;6.698;2022-09-03T02:10:46;13.14;73.28
67862;DHT22;54665;51.462;6.698;2022-09-03T02:13:26;13.16;73.60
67862;DHT22;54665;51.462;6.698;2022-09-03T02:15:56;13.12;73.38
67862;DHT22;54665;51.462;6.698;2022-09-03T02:18:24;13.10;73.11
67862;DHT22;54665;51.462;6.698;2022-09-03T02:20:55;13.10;72.98
67862;DHT22;54665;51.462;6.698;2022-09-03T02:23:22;12.99;72.81
67862;DHT22;54665;51.462;6.698;2022-09-03T02:25:51;12.86;73.28
67862;DHT22;54665;51.462;6.698;2022-09-03T02:28:17;12.83;73.52
67862;DHT22;54665;51.462;6.698;2022-09-03T02:30:42;12.80;73.75
67862;DHT22;54665;51.462;6.698;2022-09-03T02:33:08;12.79;73.43
67862;DHT22;54665;51.462;6.698;2022-09-03T02:35:34;12.69;73.66
67862;DHT22;54665;51.462;6.698;2022-09-03T02:38:14;12.58;74.15
67862;DHT22;54665;51.462;6.698;2022-09-03T02:40:41;12.44;74.75
67862;DHT22;54665;51.462;6.698;2022-09-03T02:43:15;12.41;75.74
67862;DHT22;54665;51.462;6.698;2022-09-03T02:45:45;12.32;76.21
67862;DHT22;54665;51.462;6.698;2022-09-03T02:48:12;12.31;76.60
67862;DHT22;54665;51.462;6.698;2022-09-03T02:50:41;12.31;76.52
67862;DHT22;54665;51.462;6.698;2022-09-03T02:53:07;12.25;76.54
67862;DHT22;54665;51.462;6.698;2022-09-03T02:55:32;12.21;76.90
67862;DHT22;54665;51.462;6.698;2022-09-03T02:57:58;12.28;76.80
67862;DHT22;54665;51.462;6.698;2022-09-03T03:00:25;12.38;76.77
67862;DHT22;54665;51.462;6.698;2022-09-03T03:02:54;12.41;76.44
67862;DHT22;54665;51.462;6.698;2022-09-03T03:05:34;12.35;76.26
67862;DHT22;54665;51.462;6.698;2022-09-03T03:08:01;12.30;76.11
67862;DHT22;54665;51.462;6.698;2022-09-03T03:10:26;12.27;76.76
67862;DHT22;54665;51.462;6.698;2022-09-03T03:12:52;12.21;77.25
67862;DHT22;54665;51.462;6.698;2022-09-03T03:15:17;12.17;77.87
67862;DHT22;54665;51.462;6.698;2022-09-03T03:17:43;12.17;78.27
67862;DHT22;54665;51.462;6.698;2022-09-03T03:20:09;12.20;77.81
67862;DHT22;54665;51.462;6.698;2022-09-03T03:22:38;12.16;78.21
67862;DHT22;54665;51.462;6.698;2022-09-03T03:25:03;12.08;78.33
67862;DHT22;54665;51.462;6.698;2022-09-03T03:27:30;12.08;78.09
67862;DHT22;54665;51.462;6.698;2022-09-03T03:29:55;12.14;77.96
67862;DHT22;54665;51.462;6.698;2022-09-03T03:32:22;12.20;77.56
67862;DHT22;54665;51.462;6.698;2022-09-03T03:34:47;12.20;77.69
67862;DHT22;54665;51.462;6.698;2022-09-03T03:37:13;12.24;77.36
67862;DHT22;54665;51.462;6.698;2022-09-03T03:39:39;12.24;77.26
67862;DHT22;54665;51.462;6.698;2022-09-03T03:42:04;12.18;77.45
67862;DHT22;54665;51.462;6.698;2022-09-03T03:44:30;12.14;77.71
67862;DHT22;54665;51.462;6.698;2022-09-03T03:46:55;12.18;77.69
67862;DHT22;54665;51.462;6.698;2022-09-03T03:49:20;12.18;77.63
67862;DHT22;54665;51.462;6.698;2022-09-03T03:51:46;12.24;77.87
67862;DHT22;54665;51.462;6.698;2022-09-03T03:54:11;12.31;77.22
67862;DHT22;54665;51.462;6.698;2022-09-03T03:56:37;12.31;77.07
67862;DHT22;54665;51.462;6.698;2022-09-03T03:59:03;12.30;77.02
67862;DHT22;54665;51.462;6.698;2022-09-03T04:01:28;12.24;76.84
67862;DHT22;54665;51.462;6.698;2022-09-03T04:03:55;12.17;76.93
67862;DHT22;54665;51.462;6.698;2022-09-03T04:06:20;12.11;77.17
67862;DHT22;54665;51.462;6.698;2022-09-03T04:08:47;12.07;77.73
67862;DHT22;54665;51.462;6.698;2022-09-03T04:11:19;12.07;78.17
67862;DHT22;54665;51.462;6.698;2022-09-03T04:13:45;12.00;78.20
67862;DHT22;54665;51.462;6.698;2022-09-03T04:16:19;11.98;78.82
67862;DHT22;54665;51.462;6.698;2022-09-03T04:18:45;11.97;78.72
67862;DHT22;54665;51.462;6.698;2022-09-03T04:21:20;12.01;78.27
67862;DHT22;54665;51.462;6.698;2022-09-03T04:23:47;12.04;77.99
67862;DHT22;54665;51.462;6.698;2022-09-03T04:26:25;12.07;77.74
67862;DHT22;54665;51.462;6.698;2022-09-03T04:28:51;12.07;77.48
67862;DHT22;54665;51.462;6.698;2022-09-03T04:31:18;12.02;77.28
67862;DHT22;54665;51.462;6.698;2022-09-03T04:33:44;11.97;77.78
67862;DHT22;54665;51.462;6.698;2022-09-03T04:38:39;12.05;77.38
67862;DHT22;54665;51.462;6.698;2022-09-03T04:41:12;12.04;77.48
67862;DHT22;54665;51.462;6.698;2022-09-03T04:43:38;11.98;77.89
67862;DHT22;54665;51.462;6.698;2022-09-03T04:46:06;11.95;77.71
67862;DHT22;54665;51.462;6.698;2022-09-03T04:48:33;11.94;78.08
67862;DHT22;54665;51.462;6.698;2022-09-03T04:51:06;11.90;78.28
67862;DHT22;54665;51.462;6.698;2022-09-03T04:53:34;11.83;78.63
67862;DHT22;54665;51.462;6.698;2022-09-03T04:56:02;11.80;78.63
67862;DHT22;54665;51.462;6.698;2022-09-03T04:58:27;11.81;78.60
67862;DHT22;54665;51.462;6.698;2022-09-03T05:00:53;11.81;78.53
67862;DHT22;54665;51.462;6.698;2022-09-03T05:03:18;11.86;78.45
67862;DHT22;54665;51.462;6.698;2022-09-03T05:05:52;12.00;78.23
67862;DHT22;54665;51.462;6.698;2022-09-03T05:08:18;12.16;77.51
67862;DHT22;54665;51.462;6.698;2022-09-03T05:10:43;12.18;77.25
67862;DHT22;54665;51.462;6.698;2022-09-03T05:13:09;12.24;77.10
67862;DHT22;54665;51.462;6.698;2022-09-03T05:15:34;12.17;77.43
67862;DHT22;54665;51.462;6.698;2022-09-03T05:18:01;12.20;77.34
67862;DHT22;54665;51.462;6.698;2022-09-03T05:20:28;12.27;77.31
67862;DHT22;54665;51.462;6.698;2022-09-03T05:22:55;12.35;76.91
67862;DHT22;54665;51.462;6.698;2022-09-03T05:25:20;12.48;76.91
67862;DHT22;54665;51.462;6.698;2022-09-03T05:27:47;12.56;75.97
67862;DHT22;54665;51.462;6.698;2022-09-03T05:30:12;12.71;75.40
67862;DHT22;54665;51.462;6.698;2022-09-03T05:32:38;12.75;75.76
67862;DHT22;54665;51.462;6.698;2022-09-03T05:35:04;12.76;75.99
67862;DHT22;54665;51.462;6.698;2022-09-03T05:37:30;12.76;75.93
67862;DHT22;54665;51.462;6.698;2022-09-03T05:39:56;12.90;74.81
67862;DHT22;54665;51.462;6.698;2022-09-03T05:42:21;13.03;73.89
67862;DHT22;54665;51.462;6.698;2022-09-03T05:44:47;13.21;72.30
67862;DHT22;54665;51.462;6.698;2022-09-03T05:47:14;13.33;72.60
67862;DHT22;54665;51.462;6.698;2022-09-03T05:49:40;13.39;73.61
67862;DHT22;54665;51.462;6.698;2022-09-03T05:52:05;13.57;71.74
67862;DHT22;54665;51.462;6.698;2022-09-03T05:54:30;13.67;70.85
67862;DHT22;54665;51.462;6.698;2022-09-03T05:56:56;13.74;69.76
67862;DHT22;54665;51.462;6.698;2022-09-03T05:59:21;13.82;69.95
67862;DHT22;54665;51.462;6.698;2022-09-03T06:01:47;13.89;70.74
67862;DHT22;54665;51.462;6.698;2022-09-03T06:04:15;14.00;70.16
67862;DHT22;54665;51.462;6.698;2022-09-03T06:06:42;14.11;68.77
67862;DHT22;54665;51.462;6.698;2022-09-03T06:09:11;14.25;68.17
67862;DHT22;54665;51.462;6.698;2022-09-03T06:11:39;14.46;68.16
67862;DHT22;54665;51.462;6.698;2022-09-03T06:14:06;14.62;67.86
67862;DHT22;54665;51.462;6.698;2022-09-03T06:16:38;14.73;67.20
67862;DHT22;54665;51.462;6.698;2022-09-03T06:19:04;14.72;66.88
67862;DHT22;54665;51.462;6.698;2022-09-03T06:21:38;14.85;66.54
67862;DHT22;54665;51.462;6.698;2022-09-03T06:24:08;14.93;66.36
67862;DHT22;54665;51.462;6.698;2022-09-03T06:26:33;15.15;65.37
67862;DHT22;54665;51.462;6.698;2022-09-03T06:28:59;15.28;66.39
67862;DHT22;54665;51.462;6.698;2022-09-03T06:31:25;15.51;63.98
67862;DHT22;54665;51.462;6.698;2022-09-03T06:33:51;15.58;63.29
67862;DHT22;54665;51.462;6.698;2022-09-03T06:36:19;15.66;63.80
67862;DHT22;54665;51.462;6.698;2022-09-03T06:38:45;15.78;63.31
67862;DHT22;54665;51.462;6.698;2022-09-03T06:41:16;15.89;62.74
67862;DHT22;54665;51.462;6.698;2022-09-03T06:43:46;16.00;61.71
67862;DHT22;54665;51.462;6.698;2022-09-03T06:46:14;16.10;63.48
67862;DHT22;54665;51.462;6.698;2022-09-03T06:48:40;16.18;62.77
67862;DHT22;54665;51.462;6.698;2022-09-03T06:51:17;16.24;62.19
67862;DHT22;54665;51.462;6.698;2022-09-03T06:53:49;16.36;61.19
67862;DHT22;54665;51.462;6.698;2022-09-03T06:56:17;16.54;60.82
67862;DHT22;54665;51.462;6.698;2022-09-03T06:58:45;16.72;59.85
67862;DHT22;54665;51.462;6.698;2022-09-03T07:01:15;16.95;59.35
67862;DHT22;54665;51.462;6.698;2022-09-03T07:03:42;17.16;58.18
67862;DHT22;54665;51.462;6.698;2022-09-03T07:06:13;17.59;57.83
67862;DHT22;54665;51.462;6.698;2022-09-03T07:08:40;19.10;53.28
67862;DHT22;54665;51.462;6.698;2022-09-03T07:11:18;20.80;49.55
67862;DHT22;54665;51.462;6.698;2022-09-03T07:13:48;22.14;46.10
67862;DHT22;54665;51.462;6.698;2022-09-03T07:16:19;22.67;44.24
67862;DHT22;54665;51.462;6.698;2022-09-03T07:18:45;23.39;41.80
67862;DHT22;54665;51.462;6.698;2022-09-03T07:21:16;23.81;40.46
67862;DHT22;54665;51.462;6.698;2022-09-03T07:23:43;24.24;40.01
67862;DHT22;54665;51.462;6.698;2022-09-03T07:26:17;24.31;40.04
67862;DHT22;54665;51.462;6.698;2022-09-03T07:28:44;24.51;38.64
67862;DHT22;54665;51.462;6.698;2022-09-03T07:31:13;24.87;38.31
67862;DHT22;54665;51.462;6.698;2022-09-03T07:33:40;24.87;38.23
67862;DHT22;54665;51.462;6.698;2022-09-03T07:36:11;25.19;37.51
67862;DHT22;54665;51.462;6.698;2022-09-03T07:38:39;25.34;37.85
67862;DHT22;54665;51.462;6.698;2022-09-03T07:41:07;25.20;37.36
67862;DHT22;54665;51.462;6.698;2022-09-03T07:43:35;25.61;37.01
67862;DHT22;54665;51.462;6.698;2022-09-03T07:46:01;25.94;36.36
67862;DHT22;54665;51.462;6.698;2022-09-03T07:48:27;25.80;36.22
67862;DHT22;54665;51.462;6.698;2022-09-03T07:50:57;25.15;37.17
67862;DHT22;54665;51.462;6.698;2022-09-03T07:53:26;25.94;35.77
67862;DHT22;54665;51.462;6.698;2022-09-03T07:55:52;25.54;36.84
67862;DHT22;54665;51.462;6.698;2022-09-03T07:58:18;25.85;36.52
67862;DHT22;54665;51.462;6.698;2022-09-03T08:00:48;26.36;35.57
67862;DHT22;54665;51.462;6.698;2022-09-03T08:03:13;25.91;36.45
67862;DHT22;54665;51.462;6.698;2022-09-03T08:05:39;25.92;35.80
67862;DHT22;54665;51.462;6.698;2022-09-03T08:08:05;26.35;35.33
67862;DHT22;54665;51.462;6.698;2022-09-03T08:10:35;26.55;34.85
67862;DHT22;54665;51.462;6.698;2022-09-03T08:13:02;26.29;34.97
67862;DHT22;54665;51.462;6.698;2022-09-03T08:15:30;25.85;36.28
67862;DHT22;54665;51.462;6.698;2022-09-03T08:17:56;25.81;36.92
67862;DHT22;54665;51.462;6.698;2022-09-03T08:20:21;26.47;36.28
67862;DHT22;54665;51.462;6.698;2022-09-03T08:22:47;26.25;34.94
67862;DHT22;54665;51.462;6.698;2022-09-03T08:25:13;26.39;35.67
67862;DHT22;54665;51.462;6.698;2022-09-03T08:27:38;26.83;35.44
67862;DHT22;54665;51.462;6.698;2022-09-03T08:30:04;27.35;34.53
67862;DHT22;54665;51.462;6.698;2022-09-03T08:32:30;27.04;34.76
67862;DHT22;54665;51.462;6.698;2022-09-03T08:34:55;27.24;35.29
67862;DHT22;54665;51.462;6.698;2022-09-03T08:37:20;27.57;34.66
67862;DHT22;54665;51.462;6.698;2022-09-03T08:39:52;27.79;33.63
67862;DHT22;54665;51.462;6.698;2022-09-03T08:42:29;27.99;33.33
67862;DHT22;54665;51.462;6.698;2022-09-03T08:45:00;27.63;33.53
67862;DHT22;54665;51.462;6.698;2022-09-03T08:47:49;27.61;33.25
67862;DHT22;54665;51.462;6.698;2022-09-03T08:50:31;27.99;33.54
67862;DHT22;54665;51.462;6.698;2022-09-03T08:53:01;28.14;33.03
67862;DHT22;54665;51.462;6.698;2022-09-03T08:55:33;28.40;32.11
67862;DHT22;54665;51.462;6.698;2022-09-03T09:00:48;28.78;32.02
67862;DHT22;54665;51.462;6.698;2022-09-03T09:03:28;28.87;32.01
67862;DHT22;54665;51.462;6.698;2022-09-03T09:08:29;29.04;30.99
67862;DHT22;54665;51.462;6.698;2022-09-03T09:11:18;28.97;31.80
67862;DHT22;54665;51.462;6.698;2022-09-03T09:13:47;28.64;31.72
67862;DHT22;54665;51.462;6.698;2022-09-03T09:16:28;28.90;31.29
67862;DHT22;54665;51.462;6.698;2022-09-03T09:22:02;29.12;31.39
67862;DHT22;54665;51.462;6.698;2022-09-03T09:24:39;29.32;31.10
67862;DHT22;54665;51.462;6.698;2022-09-03T09:27:06;29.09;31.72
67862;DHT22;54665;51.462;6.698;2022-09-03T09:29:35;28.80;31.92
67862;DHT22;54665;51.462;6.698;2022-09-03T09:32:02;28.77;32.12
67862;DHT22;54665;51.462;6.698;2022-09-03T09:34:33;28.95;32.20
67862;DHT22;54665;51.462;6.698;2022-09-03T09:37:02;29.12;31.81
67862;DHT22;54665;51.462;6.698;2022-09-03T09:39:30;29.38;31.70
67862;DHT22;54665;51.462;6.698;2022-09-03T09:44:24;29.22;32.50
67862;DHT22;54665;51.462;6.698;2022-09-03T09:46:50;28.87;32.19
67862;DHT22;54665;51.462;6.698;2022-09-03T09:49:34;29.58;31.23
67862;DHT22;54665;51.462;6.698;2022-09-03T09:52:11;29.70;30.61
67862;DHT22;54665;51.462;6.698;2022-09-03T09:54:39;29.60;32.35
67862;DHT22;54665;51.462;6.698;2022-09-03T09:57:06;29.58;31.76
67862;DHT22;54665;51.462;6.698;2022-09-03T09:59:34;29.87;30.86
67862;DHT22;54665;51.462;6.698;2022-09-03T10:02:10;29.62;31.42
67862;DHT22;54665;51.462;6.698;2022-09-03T10:04:36;29.46;31.84
67862;DHT22;54665;51.462;6.698;2022-09-03T10:07:27;28.90;32.56
67862;DHT22;54665;51.462;6.698;2022-09-03T10:09:59;29.12;32.90
67862;DHT22;54665;51.462;6.698;2022-09-03T10:12:34;29.42;31.91
67862;DHT22;54665;51.462;6.698;2022-09-03T10:15:02;29.23;32.10
67862;DHT22;54665;51.462;6.698;2022-09-03T10:20:25;29.21;33.25
67862;DHT22;54665;51.462;6.698;2022-09-03T10:25:24;29.15;33.26
67862;DHT22;54665;51.462;6.698;2022-09-03T10:27:51;28.86;33.79
67862;DHT22;54665;51.462;6.698;2022-09-03T10:30:18;28.98;34.13
67862;DHT22;54665;51.462;6.698;2022-09-03T10:33:04;28.46;34.72
67862;DHT22;54665;51.462;6.698;2022-09-03T10:35:59;28.10;34.91
67862;DHT22;54665;51.462;6.698;2022-09-03T10:38:33;27.88;35.85
67862;DHT22;54665;51.462;6.698;2022-09-03T10:46:23;28.27;35.76
67862;DHT22;54665;51.462;6.698;2022-09-03T11:04:55;28.24;35.56
67862;DHT22;54665;51.462;6.698;2022-09-03T11:07:27;27.96;37.38
67862;DHT22;54665;51.462;6.698;2022-09-03T11:12:43;28.05;37.33
67862;DHT22;54665;51.462;6.698;2022-09-03T11:15:17;28.10;37.87
67862;DHT22;54665;51.462;6.698;2022-09-03T11:17:54;28.30;38.12
67862;DHT22;54665;51.462;6.698;2022-09-03T11:20:25;28.37;37.05
67862;DHT22;54665;51.462;6.698;2022-09-03T11:22:58;28.35;36.35
67862;DHT22;54665;51.462;6.698;2022-09-03T11:25:29;28.35;38.01
67862;DHT22;54665;51.462;6.698;2022-09-03T11:31:19;28.40;37.64
67862;DHT22;54665;51.462;6.698;2022-09-03T11:34:06;28.54;37.12
67862;DHT22;54665;51.462;6.698;2022-09-03T11:36:35;28.51;36.90
67862;DHT22;54665;51.462;6.698;2022-09-03T11:39:33;28.56;37.90
67862;DHT22;54665;51.462;6.698;2022-09-03T11:41:58;28.75;37.24
67862;DHT22;54665;51.462;6.698;2022-09-03T11:44:42;28.75;36.54
67862;DHT22;54665;51.462;6.698;2022-09-03T11:47:41;28.16;38.27
67862;DHT22;54665;51.462;6.698;2022-09-03T11:50:30;27.59;39.67
67862;DHT22;54665;51.462;6.698;2022-09-03T11:58:32;28.13;39.97
67862;DHT22;54665;51.462;6.698;2022-09-03T12:01:01;28.17;39.65
67862;DHT22;54665;51.462;6.698;2022-09-03T12:03:51;28.23;40.26
67862;DHT22;54665;51.462;6.698;2022-09-03T12:14:31;29.02;38.08
67862;DHT22;54665;51.462;6.698;2022-09-03T12:17:11;29.09;39.93
67862;DHT22;54665;51.462;6.698;2022-09-03T12:22:15;28.97;38.33
67862;DHT22;54665;51.462;6.698;2022-09-03T12:24:41;29.08;38.81
67862;DHT22;54665;51.462;6.698;2022-09-03T12:27:15;29.07;38.00
67862;DHT22;54665;51.462;6.698;2022-09-03T12:29:59;28.80;38.33
67862;DHT22;54665;51.462;6.698;2022-09-03T12:32:33;29.05;38.62
67862;DHT22;54665;51.462;6.698;2022-09-03T12:35:15;29.33;36.93
67862;DHT22;54665;51.462;6.698;2022-09-03T12:37:42;29.23;37.17
67862;DHT22;54665;51.462;6.698;2022-09-03T12:40:23;29.19;36.50
67862;DHT22;54665;51.462;6.698;2022-09-03T12:42:50;29.49;37.45
67862;DHT22;54665;51.462;6.698;2022-09-03T12:45:25;29.43;36.17
67862;DHT22;54665;51.462;6.698;2022-09-03T12:47:51;29.55;35.44
67862;DHT22;54665;51.462;6.698;2022-09-03T12:50:18;29.48;35.76
67862;DHT22;54665;51.462;6.698;2022-09-03T12:52:57;29.87;35.00
67862;DHT22;54665;51.462;6.698;2022-09-03T12:55:44;29.73;34.74
67862;DHT22;54665;51.462;6.698;2022-09-03T13:00:53;30.00;34.95
67862;DHT22;54665;51.462;6.698;2022-09-03T13:05:53;29.59;35.02
67862;DHT22;54665;51.462;6.698;2022-09-03T13:08:25;29.60;35.90
67862;DHT22;54665;51.462;6.698;2022-09-03T13:10:55;29.49;35.82
67862;DHT22;54665;51.462;6.698;2022-09-03T13:13:33;30.16;35.41
67862;DHT22;54665;51.462;6.698;2022-09-03T13:18:59;29.36;36.18
67862;DHT22;54665;51.462;6.698;2022-09-03T13:27:09;29.18;36.47
67862;DHT22;54665;51.462;6.698;2022-09-03T13:30:00;29.12;37.06
67862;DHT22;54665;51.462;6.698;2022-09-03T13:35:09;29.21;36.83
67862;DHT22;54665;51.462;6.698;2022-09-03T13:37:39;29.21;36.55
67862;DHT22;54665;51.462;6.698;2022-09-03T13:40:23;29.32;35.49
67862;DHT22;54665;51.462;6.698;2022-09-03T13:42:52;29.56;35.54
67862;DHT22;54665;51.462;6.698;2022-09-03T13:45:28;29.97;34.39
67862;DHT22;54665;51.462;6.698;2022-09-03T13:48:06;29.80;35.04
67862;DHT22;54665;51.462;6.698;2022-09-03T13:51:09;29.89;36.32
67862;DHT22;54665;51.462;6.698;2022-09-03T13:56:54;29.97;35.33
67862;DHT22;54665;51.462;6.698;2022-09-03T14:00:08;30.16;35.16
67862;DHT22;54665;51.462;6.698;2022-09-03T14:08:12;30.38;35.33
67862;DHT22;54665;51.462;6.698;2022-09-03T14:11:01;30.25;34.42
67862;DHT22;54665;51.462;6.698;2022-09-03T14:16:28;30.09;34.99
67862;DHT22;54665;51.462;6.698;2022-09-03T14:19:02;30.57;35.45
67862;DHT22;54665;51.462;6.698;2022-09-03T14:21:35;30.40;34.37
67862;DHT22;54665;51.462;6.698;2022-09-03T14:24:11;30.76;34.34
67862;DHT22;54665;51.462;6.698;2022-09-03T14:26:49;30.68;34.46
67862;DHT22;54665;51.462;6.698;2022-09-03T14:29:16;30.51;35.20
67862;DHT22;54665;51.462;6.698;2022-09-03T14:32:23;30.64;34.77
67862;DHT22;54665;51.462;6.698;2022-09-03T14:35:11;30.65;34.83
67862;DHT22;54665;51.462;6.698;2022-09-03T14:38:31;30.64;34.60
67862;DHT22;54665;51.462;6.698;2022-09-03T14:48:57;30.64;35.14
67862;DHT22;54665;51.462;6.698;2022-09-03T14:59:22;30.49;35.26
67862;DHT22;54665;51.462;6.698;2022-09-03T15:02:25;30.61;34.48
67862;DHT22;54665;51.462;6.698;2022-09-03T15:10:13;29.69;36.62
67862;DHT22;54665;51.462;6.698;2022-09-03T15:13:19;30.11;36.68
67862;DHT22;54665;51.462;6.698;2022-09-03T15:18:31;30.16;36.12
67862;DHT22;54665;51.462;6.698;2022-09-03T15:24:19;30.18;35.79
67862;DHT22;54665;51.462;6.698;2022-09-03T15:29:48;30.21;36.56
67862;DHT22;54665;51.462;6.698;2022-09-03T15:32:44;30.34;35.65
67862;DHT22;54665;51.462;6.698;2022-09-03T15:40:51;29.90;36.90
67862;DHT22;54665;51.462;6.698;2022-09-03T15:43:30;29.52;36.78
67862;DHT22;54665;51.462;6.698;2022-09-03T15:46:01;29.81;36.95
67862;DHT22;54665;51.462;6.698;2022-09-03T15:48:57;29.86;36.61
67862;DHT22;54665;51.462;6.698;2022-09-03T15:51:34;30.23;36.90
67862;DHT22;54665;51.462;6.698;2022-09-03T15:54:47;30.25;35.17
67862;DHT22;54665;51.462;6.698;2022-09-03T15:57:45;29.62;36.83
67862;DHT22;54665;51.462;6.698;2022-09-03T16:00:19;29.66;36.78
67862;DHT22;54665;51.462;6.698;2022-09-03T16:02:49;29.15;37.75
67862;DHT22;54665;51.462;6.698;2022-09-03T16:05:40;28.71;38.12
67862;DHT22;54665;51.462;6.698;2022-09-03T16:10:51;27.33;41.95
67862;DHT22;54665;51.462;6.698;2022-09-03T16:13:23;26.83;42.67
67862;DHT22;54665;51.462;6.698;2022-09-03T16:16:00;26.32;44.68
67862;DHT22;54665;51.462;6.698;2022-09-03T16:19:42;26.28;44.80
67862;DHT22;54665;51.462;6.698;2022-09-03T16:21:31;27.04;44.17
67862;DHT22;54665;51.462;6.698;2022-09-03T16:24:08;27.49;42.23
67862;DHT22;54665;51.462;6.698;2022-09-03T16:29:28;28.26;39.91
67862;DHT22;54665;51.462;6.698;2022-09-03T16:37:48;27.35;41.48
67862;DHT22;54665;51.462;6.698;2022-09-03T16:43:13;26.76;43.57
67862;DHT22;54665;51.462;6.698;2022-09-03T16:45:56;26.46;43.02
67862;DHT22;54665;51.462;6.698;2022-09-03T16:51:01;26.12;45.10
67862;DHT22;54665;51.462;6.698;2022-09-03T16:56:53;25.81;45.51
67862;DHT22;54665;51.462;6.698;2022-09-03T17:10:50;25.06;47.81
67862;DHT22;54665;51.462;6.698;2022-09-03T17:16:22;24.86;47.69
67862;DHT22;54665;51.462;6.698;2022-09-03T17:19:00;24.82;47.89
67862;DHT22;54665;51.462;6.698;2022-09-03T17:30:02;24.82;48.54
67862;DHT22;54665;51.462;6.698;2022-09-03T17:32:48;24.72;48.46
67862;DHT22;54665;51.462;6.698;2022-09-03T17:38:25;24.42;50.66
67862;DHT22;54665;51.462;6.698;2022-09-03T17:44:14;24.04;52.44
67862;DHT22;54665;51.462;6.698;2022-09-03T17:49:44;23.76;54.23
67862;DHT22;54665;51.462;6.698;2022-09-03T17:52:29;23.56;54.98
67862;DHT22;54665;51.462;6.698;2022-09-03T17:54:59;23.43;55.74
67862;DHT22;54665;51.462;6.698;2022-09-03T17:57:37;23.26;56.28
67862;DHT22;54665;51.462;6.698;2022-09-03T18:00:11;23.11;56.97
67862;DHT22;54665;51.462;6.698;2022-09-03T18:03:10;22.96;57.51
67862;DHT22;54665;51.462;6.698;2022-09-03T18:05:51;22.78;58.22
67862;DHT22;54665;51.462;6.698;2022-09-03T18:08:50;22.58;58.39
67862;DHT22;54665;51.462;6.698;2022-09-03T18:13:52;22.37;59.71
67862;DHT22;54665;51.462;6.698;2022-09-03T18:16:28;22.24;60.53
67862;DHT22;54665;51.462;6.698;2022-09-03T18:19:05;22.12;61.53
67862;DHT22;54665;51.462;6.698;2022-09-03T18:21:35;21.99;62.29
67862;DHT22;54665;51.462;6.698;2022-09-03T18:24:27;21.86;63.10
67862;DHT22;54665;51.462;6.698;2022-09-03T18:27:21;21.79;63.70
67862;DHT22;54665;51.462;6.698;2022-09-03T18:30:08;21.75;64.02
67862;DHT22;54665;51.462;6.698;2022-09-03T18:32:53;21.59;64.44
67862;DHT22;54665;51.462;6.698;2022-09-03T18:35:38;21.56;64.95
67862;DHT22;54665;51.462;6.698;2022-09-03T18:38:31;21.56;64.74
67862;DHT22;54665;51.462;6.698;2022-09-03T18:50:50;21.90;63.60
67862;DHT22;54665;51.462;6.698;2022-09-03T18:54:07;21.93;63.36
67862;DHT22;54665;51.462;6.698;2022-09-03T18:56:57;21.89;63.57
67862;DHT22;54665;51.462;6.698;2022-09-03T19:06:04;21.45;65.85
67862;DHT22;54665;51.462;6.698;2022-09-03T19:08:56;21.42;66.78
67862;DHT22;54665;51.462;6.698;2022-09-03T19:12:02;21.38;68.30
67862;DHT22;54665;51.462;6.698;2022-09-03T19:15:05;21.22;68.65
67862;DHT22;54665;51.462;6.698;2022-09-03T19:23:45;20.79;71.59
67862;DHT22;54665;51.462;6.698;2022-09-03T19:26:44;20.63;72.71
67862;DHT22;54665;51.462;6.698;2022-09-03T19:29:59;20.44;73.20
67862;DHT22;54665;51.462;6.698;2022-09-03T19:33:13;20.37;73.88
67862;DHT22;54665;51.462;6.698;2022-09-03T19:41:47;20.15;74.47
67862;DHT22;54665;51.462;6.698;2022-09-03T19:47:32;19.85;75.16
67862;DHT22;54665;51.462;6.698;2022-09-03T19:50:23;19.71;75.60
67862;DHT22;54665;51.462;6.698;2022-09-03T19:53:14;19.61;76.26
67862;DHT22;54665;51.462;6.698;2022-09-03T19:56:10;19.58;76.40
67862;DHT22;54665;51.462;6.698;2022-09-03T19:59:02;19.47;76.62
67862;DHT22;54665;51.462;6.698;2022-09-03T20:01:48;19.38;76.55
67862;DHT22;54665;51.462;6.698;2022-09-03T20:04:50;19.35;76.85
67862;DHT22;54665;51.462;6.698;2022-09-03T20:07:43;19.31;76.92
67862;DHT22;54665;51.462;6.698;2022-09-03T20:10:30;19.20;76.83
67862;DHT22;54665;51.462;6.698;2022-09-03T20:13:10;19.13;77.07
67862;DHT22;54665;51.462;6.698;2022-09-03T20:15:44;19.04;77.28
67862;DHT22;54665;51.462;6.698;2022-09-03T20:23:37;18.95;77.76